sensor_id;sensor_type;location;lat;lon;timestamp;P1;durP1;ratioP1;P2;durP2;ratioP2
31764;SDS011;18338;53.240;8.798;2022-12-01T00:01:07;75.65;;;28.70;;
31764;SDS011;18338;53.240;8.798;2022-12-01T00:03:35;83.13;;;30.42;;
31764;SDS011;18338;53.240;8.798;2022-12-01T00:08:31;95.37;;;31.13;;
31764;SDS011;18338;53.240;8.798;2022-12-01T00:11:09;88.70;;;29.77;;
31764;SDS011;18338;53.240;8.798;2022-12-01T00:13:39;112.53;;;30.13;;
31764;SDS011;18338;53.240;8.798;2022-12-01T00:16:12;130.63;;;32.63;;
31764;SDS011;18338;53.240;8.798;2022-12-01T00:18:41;90.82;;;31.17;;
31764;SDS011;18338;53.240;8.798;2022-12-01T00:21:14;128.10;;;32.03;;
31764;SDS011;18338;53.240;8.798;2022-12-01T00:23:46;113.13;;;31.73;;
31764;SDS011;18338;53.240;8.798;2022-12-01T00:26:15;112.07;;;30.80;;
31764;SDS011;18338;53.240;8.798;2022-12-01T00:28:43;85.82;;;29.77;;
31764;SDS011;18338;53.240;8.798;2022-12-01T00:31:14;108.97;;;33.03;;
31764;SDS011;18338;53.240;8.798;2022-12-01T00:33:40;101.33;;;31.03;;
31764;SDS011;18338;53.240;8.798;2022-12-01T00:36:07;118.10;;;33.13;;
31764;SDS011;18338;53.240;8.798;2022-12-01T00:38:34;121.23;;;32.03;;
31764;SDS011;18338;53.240;8.798;2022-12-01T00:41:01;102.90;;;30.57;;
31764;SDS011;18338;53.240;8.798;2022-12-01T00:43:28;82.50;;;31.20;;
31764;SDS011;18338;53.240;8.798;2022-12-01T00:45:55;94.40;;;31.75;;
31764;SDS011;18338;53.240;8.798;2022-12-01T00:48:22;131.73;;;32.70;;
31764;SDS011;18338;53.240;8.798;2022-12-01T00:50:50;101.57;;;31.70;;
31764;SDS011;18338;53.240;8.798;2022-12-01T00:53:17;99.38;;;30.60;;
31764;SDS011;18338;53.240;8.798;2022-12-01T00:55:44;105.75;;;33.45;;
31764;SDS011;18338;53.240;8.798;2022-12-01T00:58:10;111.67;;;34.00;;
31764;SDS011;18338;53.240;8.798;2022-12-01T01:00:37;101.65;;;35.58;;
31764;SDS011;18338;53.240;8.798;2022-12-01T01:03:05;98.72;;;34.05;;
31764;SDS011;18338;53.240;8.798;2022-12-01T01:05:35;88.60;;;34.13;;
31764;SDS011;18338;53.240;8.798;2022-12-01T01:08:07;99.70;;;35.22;;
31764;SDS011;18338;53.240;8.798;2022-12-01T01:10:37;83.35;;;32.05;;
31764;SDS011;18338;53.240;8.798;2022-12-01T01:13:04;86.18;;;30.60;;
31764;SDS011;18338;53.240;8.798;2022-12-01T01:15:31;93.07;;;33.75;;
31764;SDS011;18338;53.240;8.798;2022-12-01T01:17:58;79.57;;;33.10;;
31764;SDS011;18338;53.240;8.798;2022-12-01T01:20:25;88.07;;;33.50;;
31764;SDS011;18338;53.240;8.798;2022-12-01T01:22:51;85.82;;;33.47;;
31764;SDS011;18338;53.240;8.798;2022-12-01T01:25:18;83.10;;;32.90;;
31764;SDS011;18338;53.240;8.798;2022-12-01T01:27:44;80.05;;;32.35;;
31764;SDS011;18338;53.240;8.798;2022-12-01T01:30:11;82.43;;;33.33;;
31764;SDS011;18338;53.240;8.798;2022-12-01T01:32:38;82.75;;;34.05;;
31764;SDS011;18338;53.240;8.798;2022-12-01T01:35:05;85.57;;;33.33;;
31764;SDS011;18338;53.240;8.798;2022-12-01T01:37:32;85.97;;;33.05;;
31764;SDS011;18338;53.240;8.798;2022-12-01T01:39:59;85.60;;;34.13;;
31764;SDS011;18338;53.240;8.798;2022-12-01T01:42:25;84.22;;;34.20;;
31764;SDS011;18338;53.240;8.798;2022-12-01T01:44:53;95.60;;;34.03;;
31764;SDS011;18338;53.240;8.798;2022-12-01T01:47:24;90.38;;;33.83;;
31764;SDS011;18338;53.240;8.798;2022-12-01T01:49:55;94.70;;;34.95;;
31764;SDS011;18338;53.240;8.798;2022-12-01T01:52:24;93.63;;;34.10;;
31764;SDS011;18338;53.240;8.798;2022-12-01T01:54:53;87.15;;;35.28;;
31764;SDS011;18338;53.240;8.798;2022-12-01T01:57:27;89.47;;;34.63;;
31764;SDS011;18338;53.240;8.798;2022-12-01T01:59:58;100.70;;;37.40;;
31764;SDS011;18338;53.240;8.798;2022-12-01T02:02:37;101.03;;;35.03;;
31764;SDS011;18338;53.240;8.798;2022-12-01T02:05:11;92.97;;;35.83;;
31764;SDS011;18338;53.240;8.798;2022-12-01T02:07:44;101.63;;;37.72;;
31764;SDS011;18338;53.240;8.798;2022-12-01T02:10:13;86.63;;;36.00;;
31764;SDS011;18338;53.240;8.798;2022-12-01T02:26:11;102.88;;;38.00;;
31764;SDS011;18338;53.240;8.798;2022-12-01T02:29:05;108.57;;;39.55;;
31764;SDS011;18338;53.240;8.798;2022-12-01T02:31:42;92.80;;;35.47;;
31764;SDS011;18338;53.240;8.798;2022-12-01T02:40:10;109.30;;;39.33;;
31764;SDS011;18338;53.240;8.798;2022-12-01T02:42:47;110.10;;;39.53;;
31764;SDS011;18338;53.240;8.798;2022-12-01T02:47:56;116.28;;;39.95;;
31764;SDS011;18338;53.240;8.798;2022-12-01T02:50:27;113.38;;;40.92;;
31764;SDS011;18338;53.240;8.798;2022-12-01T02:52:56;109.18;;;39.40;;
31764;SDS011;18338;53.240;8.798;2022-12-01T02:55:27;123.95;;;41.13;;
31764;SDS011;18338;53.240;8.798;2022-12-01T02:57:54;110.22;;;39.28;;
31764;SDS011;18338;53.240;8.798;2022-12-01T03:00:21;93.07;;;37.57;;
31764;SDS011;18338;53.240;8.798;2022-12-01T03:05:50;113.28;;;40.70;;
31764;SDS011;18338;53.240;8.798;2022-12-01T03:11:00;114.23;;;40.37;;
31764;SDS011;18338;53.240;8.798;2022-12-01T03:13:40;115.70;;;40.25;;
31764;SDS011;18338;53.240;8.798;2022-12-01T03:16:15;115.88;;;41.40;;
31764;SDS011;18338;53.240;8.798;2022-12-01T03:18:52;125.88;;;40.45;;
31764;SDS011;18338;53.240;8.798;2022-12-01T03:21:40;131.95;;;41.47;;
31764;SDS011;18338;53.240;8.798;2022-12-01T03:24:18;117.10;;;41.03;;
31764;SDS011;18338;53.240;8.798;2022-12-01T03:26:48;137.52;;;42.50;;
31764;SDS011;18338;53.240;8.798;2022-12-01T03:29:26;120.90;;;43.25;;
31764;SDS011;18338;53.240;8.798;2022-12-01T03:32:02;131.55;;;42.65;;
31764;SDS011;18338;53.240;8.798;2022-12-01T03:37:18;106.75;;;40.40;;
31764;SDS011;18338;53.240;8.798;2022-12-01T03:39:49;116.55;;;42.03;;
31764;SDS011;18338;53.240;8.798;2022-12-01T03:43:08;106.60;;;41.35;;
31764;SDS011;18338;53.240;8.798;2022-12-01T03:45:46;104.43;;;39.00;;
31764;SDS011;18338;53.240;8.798;2022-12-01T03:48:16;107.90;;;40.88;;
31764;SDS011;18338;53.240;8.798;2022-12-01T03:51:02;103.45;;;40.38;;
31764;SDS011;18338;53.240;8.798;2022-12-01T03:56:21;103.18;;;37.90;;
31764;SDS011;18338;53.240;8.798;2022-12-01T03:58:51;107.28;;;40.83;;
31764;SDS011;18338;53.240;8.798;2022-12-01T04:01:22;101.47;;;38.00;;
31764;SDS011;18338;53.240;8.798;2022-12-01T04:03:51;102.10;;;40.92;;
31764;SDS011;18338;53.240;8.798;2022-12-01T04:06:18;105.00;;;40.83;;
31764;SDS011;18338;53.240;8.798;2022-12-01T04:08:44;100.07;;;41.42;;
31764;SDS011;18338;53.240;8.798;2022-12-01T04:11:11;90.67;;;37.97;;
31764;SDS011;18338;53.240;8.798;2022-12-01T04:13:58;104.30;;;41.78;;
31764;SDS011;18338;53.240;8.798;2022-12-01T04:16:24;103.50;;;42.40;;
31764;SDS011;18338;53.240;8.798;2022-12-01T04:18:51;98.18;;;39.67;;
31764;SDS011;18338;53.240;8.798;2022-12-01T04:21:18;106.43;;;42.27;;
31764;SDS011;18338;53.240;8.798;2022-12-01T04:23:44;96.50;;;42.25;;
31764;SDS011;18338;53.240;8.798;2022-12-01T04:26:27;100.65;;;40.92;;
31764;SDS011;18338;53.240;8.798;2022-12-01T04:28:55;100.95;;;41.28;;
31764;SDS011;18338;53.240;8.798;2022-12-01T04:31:21;101.88;;;43.10;;
31764;SDS011;18338;53.240;8.798;2022-12-01T04:33:48;100.13;;;41.93;;
31764;SDS011;18338;53.240;8.798;2022-12-01T04:36:15;98.60;;;41.72;;
31764;SDS011;18338;53.240;8.798;2022-12-01T04:38:41;99.50;;;41.78;;
31764;SDS011;18338;53.240;8.798;2022-12-01T04:41:09;105.57;;;44.38;;
31764;SDS011;18338;53.240;8.798;2022-12-01T04:43:36;106.37;;;44.87;;
31764;SDS011;18338;53.240;8.798;2022-12-01T04:46:04;103.57;;;42.75;;
31764;SDS011;18338;53.240;8.798;2022-12-01T04:48:32;96.70;;;42.63;;
31764;SDS011;18338;53.240;8.798;2022-12-01T04:51:01;104.45;;;44.50;;
31764;SDS011;18338;53.240;8.798;2022-12-01T04:53:29;104.30;;;45.47;;
31764;SDS011;18338;53.240;8.798;2022-12-01T04:55:58;101.50;;;44.00;;
31764;SDS011;18338;53.240;8.798;2022-12-01T04:58:26;103.90;;;44.70;;
31764;SDS011;18338;53.240;8.798;2022-12-01T05:00:53;103.72;;;47.08;;
31764;SDS011;18338;53.240;8.798;2022-12-01T05:03:20;99.68;;;44.15;;
31764;SDS011;18338;53.240;8.798;2022-12-01T05:05:46;97.88;;;43.58;;
31764;SDS011;18338;53.240;8.798;2022-12-01T05:08:13;97.20;;;44.05;;
31764;SDS011;18338;53.240;8.798;2022-12-01T05:10:40;100.78;;;45.58;;
31764;SDS011;18338;53.240;8.798;2022-12-01T05:13:06;106.22;;;46.97;;
31764;SDS011;18338;53.240;8.798;2022-12-01T05:15:33;99.85;;;44.10;;
31764;SDS011;18338;53.240;8.798;2022-12-01T05:18:00;102.03;;;45.55;;
31764;SDS011;18338;53.240;8.798;2022-12-01T05:20:27;99.95;;;44.90;;
31764;SDS011;18338;53.240;8.798;2022-12-01T05:23:13;97.85;;;43.80;;
31764;SDS011;18338;53.240;8.798;2022-12-01T05:25:42;100.10;;;45.97;;
31764;SDS011;18338;53.240;8.798;2022-12-01T05:28:09;99.18;;;46.28;;
31764;SDS011;18338;53.240;8.798;2022-12-01T05:30:37;104.10;;;45.65;;
31764;SDS011;18338;53.240;8.798;2022-12-01T05:33:04;98.90;;;46.13;;
31764;SDS011;18338;53.240;8.798;2022-12-01T05:35:32;96.83;;;45.30;;
31764;SDS011;18338;53.240;8.798;2022-12-01T05:37:59;103.47;;;47.17;;
31764;SDS011;18338;53.240;8.798;2022-12-01T05:40:32;102.93;;;46.05;;
31764;SDS011;18338;53.240;8.798;2022-12-01T05:42:59;104.28;;;44.90;;
31764;SDS011;18338;53.240;8.798;2022-12-01T05:45:26;99.20;;;45.63;;
31764;SDS011;18338;53.240;8.798;2022-12-01T05:47:54;101.60;;;47.00;;
31764;SDS011;18338;53.240;8.798;2022-12-01T05:50:22;99.53;;;46.33;;
31764;SDS011;18338;53.240;8.798;2022-12-01T05:52:49;97.22;;;44.78;;
31764;SDS011;18338;53.240;8.798;2022-12-01T05:55:16;94.95;;;45.67;;
31764;SDS011;18338;53.240;8.798;2022-12-01T05:57:43;93.50;;;46.60;;
31764;SDS011;18338;53.240;8.798;2022-12-01T06:00:10;102.27;;;47.73;;
31764;SDS011;18338;53.240;8.798;2022-12-01T06:02:39;98.60;;;45.43;;
31764;SDS011;18338;53.240;8.798;2022-12-01T06:05:08;100.88;;;45.63;;
31764;SDS011;18338;53.240;8.798;2022-12-01T06:07:34;102.65;;;46.72;;
31764;SDS011;18338;53.240;8.798;2022-12-01T06:10:02;103.10;;;46.95;;
31764;SDS011;18338;53.240;8.798;2022-12-01T06:12:29;108.07;;;47.53;;
31764;SDS011;18338;53.240;8.798;2022-12-01T06:14:57;105.93;;;46.25;;
31764;SDS011;18338;53.240;8.798;2022-12-01T06:17:24;103.70;;;47.42;;
31764;SDS011;18338;53.240;8.798;2022-12-01T06:19:50;98.72;;;45.95;;
31764;SDS011;18338;53.240;8.798;2022-12-01T06:22:17;102.05;;;48.53;;
31764;SDS011;18338;53.240;8.798;2022-12-01T06:24:44;98.72;;;47.25;;
31764;SDS011;18338;53.240;8.798;2022-12-01T06:27:11;95.35;;;47.78;;
31764;SDS011;18338;53.240;8.798;2022-12-01T06:29:39;102.90;;;48.63;;
31764;SDS011;18338;53.240;8.798;2022-12-01T06:32:07;106.37;;;49.77;;
31764;SDS011;18338;53.240;8.798;2022-12-01T06:34:34;95.75;;;46.67;;
31764;SDS011;18338;53.240;8.798;2022-12-01T06:37:01;100.63;;;47.22;;
31764;SDS011;18338;53.240;8.798;2022-12-01T06:39:28;95.68;;;45.35;;
31764;SDS011;18338;53.240;8.798;2022-12-01T06:41:55;108.67;;;47.07;;
31764;SDS011;18338;53.240;8.798;2022-12-01T06:44:22;95.35;;;46.03;;
31764;SDS011;18338;53.240;8.798;2022-12-01T06:46:49;96.43;;;46.50;;
31764;SDS011;18338;53.240;8.798;2022-12-01T06:49:18;92.73;;;46.70;;
31764;SDS011;18338;53.240;8.798;2022-12-01T06:51:45;98.47;;;47.08;;
31764;SDS011;18338;53.240;8.798;2022-12-01T06:54:12;98.75;;;48.53;;
31764;SDS011;18338;53.240;8.798;2022-12-01T06:56:41;99.87;;;47.50;;
31764;SDS011;18338;53.240;8.798;2022-12-01T06:59:12;97.50;;;46.57;;
31764;SDS011;18338;53.240;8.798;2022-12-01T07:01:39;97.60;;;46.40;;
31764;SDS011;18338;53.240;8.798;2022-12-01T07:04:09;92.60;;;46.50;;
31764;SDS011;18338;53.240;8.798;2022-12-01T07:06:39;94.77;;;46.53;;
31764;SDS011;18338;53.240;8.798;2022-12-01T07:09:05;94.80;;;46.50;;
31764;SDS011;18338;53.240;8.798;2022-12-01T07:11:33;94.43;;;45.28;;
31764;SDS011;18338;53.240;8.798;2022-12-01T07:14:01;97.60;;;45.60;;
31764;SDS011;18338;53.240;8.798;2022-12-01T07:16:29;96.85;;;45.72;;
31764;SDS011;18338;53.240;8.798;2022-12-01T07:18:56;95.80;;;45.73;;
31764;SDS011;18338;53.240;8.798;2022-12-01T07:21:25;91.90;;;44.23;;
31764;SDS011;18338;53.240;8.798;2022-12-01T07:23:51;91.77;;;46.20;;
31764;SDS011;18338;53.240;8.798;2022-12-01T07:26:19;97.00;;;45.53;;
31764;SDS011;18338;53.240;8.798;2022-12-01T07:28:47;95.63;;;45.93;;
31764;SDS011;18338;53.240;8.798;2022-12-01T07:31:15;96.68;;;45.95;;
31764;SDS011;18338;53.240;8.798;2022-12-01T07:33:43;89.13;;;45.28;;
31764;SDS011;18338;53.240;8.798;2022-12-01T07:36:12;91.43;;;45.60;;
31764;SDS011;18338;53.240;8.798;2022-12-01T07:38:39;94.23;;;45.37;;
31764;SDS011;18338;53.240;8.798;2022-12-01T07:41:11;89.70;;;44.37;;
31764;SDS011;18338;53.240;8.798;2022-12-01T07:43:39;93.53;;;45.47;;
31764;SDS011;18338;53.240;8.798;2022-12-01T07:46:10;90.82;;;46.47;;
31764;SDS011;18338;53.240;8.798;2022-12-01T07:48:49;91.07;;;45.80;;
31764;SDS011;18338;53.240;8.798;2022-12-01T07:51:17;90.13;;;44.67;;
31764;SDS011;18338;53.240;8.798;2022-12-01T07:53:45;91.53;;;45.63;;
31764;SDS011;18338;53.240;8.798;2022-12-01T07:56:16;90.23;;;44.73;;
31764;SDS011;18338;53.240;8.798;2022-12-01T07:58:43;85.73;;;42.43;;
31764;SDS011;18338;53.240;8.798;2022-12-01T08:01:11;85.43;;;43.60;;
31764;SDS011;18338;53.240;8.798;2022-12-01T08:03:41;87.27;;;43.83;;
31764;SDS011;18338;53.240;8.798;2022-12-01T08:06:08;88.70;;;43.73;;
31764;SDS011;18338;53.240;8.798;2022-12-01T08:08:36;85.30;;;44.13;;
31764;SDS011;18338;53.240;8.798;2022-12-01T08:11:27;87.23;;;43.70;;
31764;SDS011;18338;53.240;8.798;2022-12-01T08:13:55;88.70;;;44.63;;
31764;SDS011;18338;53.240;8.798;2022-12-01T08:16:22;88.83;;;44.10;;
31764;SDS011;18338;53.240;8.798;2022-12-01T08:18:51;83.97;;;43.25;;
31764;SDS011;18338;53.240;8.798;2022-12-01T08:21:19;77.97;;;42.78;;
31764;SDS011;18338;53.240;8.798;2022-12-01T08:23:47;87.87;;;44.97;;
31764;SDS011;18338;53.240;8.798;2022-12-01T08:26:17;84.43;;;43.80;;
31764;SDS011;18338;53.240;8.798;2022-12-01T08:28:45;82.85;;;44.15;;
31764;SDS011;18338;53.240;8.798;2022-12-01T08:31:15;85.43;;;43.75;;
31764;SDS011;18338;53.240;8.798;2022-12-01T08:33:45;84.10;;;44.03;;
31764;SDS011;18338;53.240;8.798;2022-12-01T08:36:12;86.60;;;42.40;;
31764;SDS011;18338;53.240;8.798;2022-12-01T08:38:44;80.00;;;43.60;;
31764;SDS011;18338;53.240;8.798;2022-12-01T08:41:13;82.40;;;44.47;;
31764;SDS011;18338;53.240;8.798;2022-12-01T08:43:41;82.40;;;41.85;;
31764;SDS011;18338;53.240;8.798;2022-12-01T08:46:27;89.30;;;43.87;;
31764;SDS011;18338;53.240;8.798;2022-12-01T08:48:59;83.33;;;42.97;;
31764;SDS011;18338;53.240;8.798;2022-12-01T08:51:26;80.77;;;41.60;;
31764;SDS011;18338;53.240;8.798;2022-12-01T08:53:54;81.07;;;42.83;;
31764;SDS011;18338;53.240;8.798;2022-12-01T08:56:25;85.43;;;42.70;;
31764;SDS011;18338;53.240;8.798;2022-12-01T08:58:57;78.47;;;40.75;;
31764;SDS011;18338;53.240;8.798;2022-12-01T09:01:25;80.10;;;43.57;;
31764;SDS011;18338;53.240;8.798;2022-12-01T09:03:53;82.72;;;41.38;;
31764;SDS011;18338;53.240;8.798;2022-12-01T09:06:33;79.13;;;42.33;;
31764;SDS011;18338;53.240;8.798;2022-12-01T09:09:06;76.57;;;40.80;;
31764;SDS011;18338;53.240;8.798;2022-12-01T09:11:34;75.75;;;41.20;;
31764;SDS011;18338;53.240;8.798;2022-12-01T09:14:01;71.67;;;38.33;;
31764;SDS011;18338;53.240;8.798;2022-12-01T09:16:28;72.40;;;40.05;;
31764;SDS011;18338;53.240;8.798;2022-12-01T09:18:55;70.63;;;38.72;;
31764;SDS011;18338;53.240;8.798;2022-12-01T09:21:23;69.03;;;39.95;;
31764;SDS011;18338;53.240;8.798;2022-12-01T09:23:53;72.03;;;38.35;;
31764;SDS011;18338;53.240;8.798;2022-12-01T09:26:20;66.45;;;37.70;;
31764;SDS011;18338;53.240;8.798;2022-12-01T09:28:51;70.93;;;39.40;;
31764;SDS011;18338;53.240;8.798;2022-12-01T09:31:19;68.30;;;36.58;;
31764;SDS011;18338;53.240;8.798;2022-12-01T09:33:55;65.40;;;36.03;;
31764;SDS011;18338;53.240;8.798;2022-12-01T09:36:24;62.28;;;36.28;;
31764;SDS011;18338;53.240;8.798;2022-12-01T09:38:51;63.60;;;37.07;;
31764;SDS011;18338;53.240;8.798;2022-12-01T09:41:20;67.45;;;35.40;;
31764;SDS011;18338;53.240;8.798;2022-12-01T09:46:25;63.88;;;35.03;;
31764;SDS011;18338;53.240;8.798;2022-12-01T09:48:58;61.60;;;34.38;;
31764;SDS011;18338;53.240;8.798;2022-12-01T09:51:28;61.78;;;35.50;;
31764;SDS011;18338;53.240;8.798;2022-12-01T09:53:57;59.22;;;34.83;;
31764;SDS011;18338;53.240;8.798;2022-12-01T09:56:27;60.47;;;34.92;;
31764;SDS011;18338;53.240;8.798;2022-12-01T09:58:57;58.80;;;33.97;;
31764;SDS011;18338;53.240;8.798;2022-12-01T10:01:30;55.53;;;34.00;;
31764;SDS011;18338;53.240;8.798;2022-12-01T10:04:24;58.15;;;34.35;;
31764;SDS011;18338;53.240;8.798;2022-12-01T10:12:15;57.70;;;33.95;;
31764;SDS011;18338;53.240;8.798;2022-12-01T10:14:44;52.83;;;32.00;;
31764;SDS011;18338;53.240;8.798;2022-12-01T10:26:01;55.92;;;33.20;;
31764;SDS011;18338;53.240;8.798;2022-12-01T10:31:29;54.83;;;32.75;;
31764;SDS011;18338;53.240;8.798;2022-12-01T10:34:12;55.45;;;32.97;;
31764;SDS011;18338;53.240;8.798;2022-12-01T10:36:43;56.03;;;32.47;;
31764;SDS011;18338;53.240;8.798;2022-12-01T10:39:14;56.20;;;32.10;;
31764;SDS011;18338;53.240;8.798;2022-12-01T10:41:46;55.47;;;32.88;;
31764;SDS011;18338;53.240;8.798;2022-12-01T10:44:14;57.13;;;33.50;;
31764;SDS011;18338;53.240;8.798;2022-12-01T10:46:43;50.97;;;30.33;;
31764;SDS011;18338;53.240;8.798;2022-12-01T10:49:15;56.50;;;31.70;;
31764;SDS011;18338;53.240;8.798;2022-12-01T10:51:55;56.58;;;31.73;;
31764;SDS011;18338;53.240;8.798;2022-12-01T10:54:27;56.22;;;30.90;;
31764;SDS011;18338;53.240;8.798;2022-12-01T10:56:58;54.95;;;31.33;;
31764;SDS011;18338;53.240;8.798;2022-12-01T10:59:30;56.95;;;32.53;;
31764;SDS011;18338;53.240;8.798;2022-12-01T11:02:15;54.05;;;30.50;;
31764;SDS011;18338;53.240;8.798;2022-12-01T11:05:02;53.83;;;30.27;;
31764;SDS011;18338;53.240;8.798;2022-12-01T11:07:40;57.10;;;30.88;;
31764;SDS011;18338;53.240;8.798;2022-12-01T11:12:42;54.75;;;31.48;;
31764;SDS011;18338;53.240;8.798;2022-12-01T11:15:18;58.35;;;33.28;;
31764;SDS011;18338;53.240;8.798;2022-12-01T11:17:59;56.40;;;31.80;;
31764;SDS011;18338;53.240;8.798;2022-12-01T11:20:33;51.80;;;30.80;;
31764;SDS011;18338;53.240;8.798;2022-12-01T11:23:16;56.65;;;32.63;;
31764;SDS011;18338;53.240;8.798;2022-12-01T11:26:00;53.95;;;30.42;;
31764;SDS011;18338;53.240;8.798;2022-12-01T11:28:32;54.97;;;30.33;;
31764;SDS011;18338;53.240;8.798;2022-12-01T11:31:05;51.10;;;31.90;;
31764;SDS011;18338;53.240;8.798;2022-12-01T11:33:38;55.65;;;31.45;;
31764;SDS011;18338;53.240;8.798;2022-12-01T11:36:21;53.55;;;30.27;;
31764;SDS011;18338;53.240;8.798;2022-12-01T11:38:57;55.72;;;31.20;;
31764;SDS011;18338;53.240;8.798;2022-12-01T11:41:27;48.45;;;29.20;;
31764;SDS011;18338;53.240;8.798;2022-12-01T11:43:58;47.55;;;28.55;;
31764;SDS011;18338;53.240;8.798;2022-12-01T11:46:33;49.33;;;27.42;;
31764;SDS011;18338;53.240;8.798;2022-12-01T11:49:21;50.05;;;28.95;;
31764;SDS011;18338;53.240;8.798;2022-12-01T11:51:50;52.70;;;29.20;;
31764;SDS011;18338;53.240;8.798;2022-12-01T11:54:18;47.83;;;28.75;;
31764;SDS011;18338;53.240;8.798;2022-12-01T11:56:51;47.28;;;28.27;;
31764;SDS011;18338;53.240;8.798;2022-12-01T11:59:39;51.03;;;28.38;;
31764;SDS011;18338;53.240;8.798;2022-12-01T12:02:12;52.65;;;30.20;;
31764;SDS011;18338;53.240;8.798;2022-12-01T12:05:08;45.47;;;27.60;;
31764;SDS011;18338;53.240;8.798;2022-12-01T12:07:59;49.00;;;29.17;;
31764;SDS011;18338;53.240;8.798;2022-12-01T12:10:54;49.47;;;28.23;;
31764;SDS011;18338;53.240;8.798;2022-12-01T12:13:42;52.95;;;30.40;;
31764;SDS011;18338;53.240;8.798;2022-12-01T12:19:34;49.33;;;28.25;;
31764;SDS011;18338;53.240;8.798;2022-12-01T12:31:15;48.72;;;28.27;;
31764;SDS011;18338;53.240;8.798;2022-12-01T12:39:16;52.60;;;30.30;;
31764;SDS011;18338;53.240;8.798;2022-12-01T12:42:07;51.42;;;28.17;;
31764;SDS011;18338;53.240;8.798;2022-12-01T12:44:59;56.63;;;30.35;;
31764;SDS011;18338;53.240;8.798;2022-12-01T12:53:26;51.03;;;28.23;;
31764;SDS011;18338;53.240;8.798;2022-12-01T12:56:01;54.70;;;30.02;;
31764;SDS011;18338;53.240;8.798;2022-12-01T12:58:38;51.33;;;28.35;;
31764;SDS011;18338;53.240;8.798;2022-12-01T13:01:15;48.75;;;28.48;;
31764;SDS011;18338;53.240;8.798;2022-12-01T13:07:11;48.63;;;29.15;;
31764;SDS011;18338;53.240;8.798;2022-12-01T13:09:47;51.75;;;28.75;;
31764;SDS011;18338;53.240;8.798;2022-12-01T13:12:27;54.58;;;30.08;;
31764;SDS011;18338;53.240;8.798;2022-12-01T13:15:15;49.53;;;28.80;;
31764;SDS011;18338;53.240;8.798;2022-12-01T13:21:01;58.42;;;30.88;;
31764;SDS011;18338;53.240;8.798;2022-12-01T13:23:29;52.38;;;28.50;;
31764;SDS011;18338;53.240;8.798;2022-12-01T13:25:58;60.10;;;30.38;;
31764;SDS011;18338;53.240;8.798;2022-12-01T13:28:33;55.17;;;30.40;;
31764;SDS011;18338;53.240;8.798;2022-12-01T13:31:07;52.58;;;29.80;;
31764;SDS011;18338;53.240;8.798;2022-12-01T13:33:37;52.50;;;29.17;;
31764;SDS011;18338;53.240;8.798;2022-12-01T13:36:11;56.90;;;30.42;;
31764;SDS011;18338;53.240;8.798;2022-12-01T13:39:06;58.22;;;30.35;;
31764;SDS011;18338;53.240;8.798;2022-12-01T13:42:00;64.22;;;31.38;;
31764;SDS011;18338;53.240;8.798;2022-12-01T13:44:34;54.38;;;30.67;;
31764;SDS011;18338;53.240;8.798;2022-12-01T13:57:33;60.72;;;32.08;;
31764;SDS011;18338;53.240;8.798;2022-12-01T14:10:57;56.53;;;30.83;;
31764;SDS011;18338;53.240;8.798;2022-12-01T14:13:27;59.95;;;29.95;;
31764;SDS011;18338;53.240;8.798;2022-12-01T14:15:55;58.13;;;30.35;;
31764;SDS011;18338;53.240;8.798;2022-12-01T14:21:22;56.47;;;29.35;;
31764;SDS011;18338;53.240;8.798;2022-12-01T14:24:14;53.33;;;28.48;;
31764;SDS011;18338;53.240;8.798;2022-12-01T14:26:47;55.33;;;30.23;;
31764;SDS011;18338;53.240;8.798;2022-12-01T14:34:28;61.95;;;30.75;;
31764;SDS011;18338;53.240;8.798;2022-12-01T14:37:08;58.15;;;29.55;;
31764;SDS011;18338;53.240;8.798;2022-12-01T14:39:38;59.70;;;29.08;;
31764;SDS011;18338;53.240;8.798;2022-12-01T14:42:23;64.75;;;31.70;;
31764;SDS011;18338;53.240;8.798;2022-12-01T14:45:16;62.47;;;30.15;;
31764;SDS011;18338;53.240;8.798;2022-12-01T14:48:22;60.47;;;30.07;;
31764;SDS011;18338;53.240;8.798;2022-12-01T14:50:47;59.45;;;29.55;;
31764;SDS011;18338;53.240;8.798;2022-12-01T14:53:33;55.03;;;30.25;;
31764;SDS011;18338;53.240;8.798;2022-12-01T14:56:08;52.70;;;27.23;;
31764;SDS011;18338;53.240;8.798;2022-12-01T14:58:41;52.07;;;27.20;;
31764;SDS011;18338;53.240;8.798;2022-12-01T15:01:17;48.83;;;25.50;;
31764;SDS011;18338;53.240;8.798;2022-12-01T15:03:47;42.95;;;25.70;;
31764;SDS011;18338;53.240;8.798;2022-12-01T15:06:21;42.93;;;25.40;;
31764;SDS011;18338;53.240;8.798;2022-12-01T15:11:55;46.33;;;25.40;;
31764;SDS011;18338;53.240;8.798;2022-12-01T15:14:32;41.90;;;24.60;;
31764;SDS011;18338;53.240;8.798;2022-12-01T15:17:01;45.90;;;24.47;;
31764;SDS011;18338;53.240;8.798;2022-12-01T15:22:13;47.50;;;24.13;;
31764;SDS011;18338;53.240;8.798;2022-12-01T15:24:42;41.70;;;23.27;;
31764;SDS011;18338;53.240;8.798;2022-12-01T15:27:29;43.57;;;24.20;;
31764;SDS011;18338;53.240;8.798;2022-12-01T15:29:58;44.97;;;24.90;;
31764;SDS011;18338;53.240;8.798;2022-12-01T15:32:30;46.63;;;24.47;;
31764;SDS011;18338;53.240;8.798;2022-12-01T15:34:59;40.50;;;22.43;;
31764;SDS011;18338;53.240;8.798;2022-12-01T15:37:39;40.67;;;23.53;;
31764;SDS011;18338;53.240;8.798;2022-12-01T15:40:10;43.00;;;23.90;;
31764;SDS011;18338;53.240;8.798;2022-12-01T15:43:11;49.87;;;24.53;;
31764;SDS011;18338;53.240;8.798;2022-12-01T15:45:52;47.10;;;24.03;;
31764;SDS011;18338;53.240;8.798;2022-12-01T15:48:31;43.37;;;24.57;;
31764;SDS011;18338;53.240;8.798;2022-12-01T15:53:34;48.50;;;25.13;;
31764;SDS011;18338;53.240;8.798;2022-12-01T15:56:06;48.33;;;24.60;;
31764;SDS011;18338;53.240;8.798;2022-12-01T15:58:39;48.70;;;24.00;;
31764;SDS011;18338;53.240;8.798;2022-12-01T16:01:12;48.92;;;25.17;;
31764;SDS011;18338;53.240;8.798;2022-12-01T16:03:51;47.30;;;23.93;;
31764;SDS011;18338;53.240;8.798;2022-12-01T16:06:35;48.83;;;24.33;;
31764;SDS011;18338;53.240;8.798;2022-12-01T16:09:27;49.63;;;24.90;;
31764;SDS011;18338;53.240;8.798;2022-12-01T16:18:19;52.00;;;24.40;;
31764;SDS011;18338;53.240;8.798;2022-12-01T16:21:04;47.03;;;23.90;;
31764;SDS011;18338;53.240;8.798;2022-12-01T16:23:40;47.20;;;23.47;;
31764;SDS011;18338;53.240;8.798;2022-12-01T16:26:07;47.90;;;24.20;;
31764;SDS011;18338;53.240;8.798;2022-12-01T16:28:34;48.53;;;24.33;;
31764;SDS011;18338;53.240;8.798;2022-12-01T16:31:05;46.40;;;23.23;;
31764;SDS011;18338;53.240;8.798;2022-12-01T16:33:40;54.47;;;26.20;;
31764;SDS011;18338;53.240;8.798;2022-12-01T16:36:07;55.03;;;25.73;;
31764;SDS011;18338;53.240;8.798;2022-12-01T16:38:33;59.60;;;25.87;;
31764;SDS011;18338;53.240;8.798;2022-12-01T16:41:00;65.27;;;26.77;;
31764;SDS011;18338;53.240;8.798;2022-12-01T16:43:39;61.10;;;27.13;;
31764;SDS011;18338;53.240;8.798;2022-12-01T16:46:24;59.77;;;27.60;;
31764;SDS011;18338;53.240;8.798;2022-12-01T16:48:51;56.67;;;26.67;;
31764;SDS011;18338;53.240;8.798;2022-12-01T16:51:18;62.67;;;25.73;;
31764;SDS011;18338;53.240;8.798;2022-12-01T16:53:57;59.20;;;26.20;;
31764;SDS011;18338;53.240;8.798;2022-12-01T16:56:32;56.27;;;24.30;;
31764;SDS011;18338;53.240;8.798;2022-12-01T16:58:59;58.17;;;25.00;;